Time;durP1;ratioP1;P1;durP2;ratioP2;P2;SDS_P1;SDS_P2;PMS_P1;PMS_P2;Temp;Humidity;BMP_temperature;BMP_pressure;BME280_temperature;BME280_humidity;BME280_pressure;Samples;Min_cycle;Max_cycle;Signal;HPM_P1;HPM_P2
2024/02/13 00:01:28;;;;;;;1.27;1.23;;;;;;;;;;5093753;28;20020;-67
2024/02/13 00:03:54;;;;;;;0.17;0.17;;;;;;;;;;5091471;28;20375;-66
2024/02/13 00:06:19;;;;;;;1.42;0.73;;;;;;;;;;5073509;28;20024;-67
2024/02/13 00:08:46;;;;;;;0.10;0.10;;;;;;;;;;5073480;28;20059;-67
2024/02/13 00:11:13;;;;;;;1.60;1.02;;;;;;;;;;5073538;28;20024;-67
2024/02/13 00:13:38;;;;;;;0.65;0.65;;;;;;;;;;5073564;28;20021;-67
2024/02/13 00:16:03;;;;;;;0.20;0.20;;;;;;;;;;5073304;28;20551;-67
2024/02/13 00:18:30;;;;;;;0.10;0.10;;;;;;;;;;5072901;28;20095;-66
2024/02/13 00:20:56;;;;;;;0.10;0.10;;;;;;;;;;5073120;28;20127;-67
2024/02/13 00:23:22;;;;;;;0.20;0.20;;;;;;;;;;5073272;28;20017;-67
2024/02/13 00:25:47;;;;;;;0.10;0.10;;;;;;;;;;5073211;28;20023;-67
2024/02/13 00:28:12;;;;;;;0.10;0.10;;;;;;;;;;5073281;28;20249;-67
2024/02/13 00:30:40;;;;;;;0.10;0.10;;;;;;;;;;5073270;28;20380;-66
2024/02/13 00:33:05;;;;;;;0.68;0.68;;;;;;;;;;5073473;28;20438;-66
2024/02/13 00:35:30;;;;;;;0.20;0.20;;;;;;;;;;5073090;28;20111;-67
2024/02/13 00:37:56;;;;;;;0.40;0.40;;;;;;;;;;5073167;28;20020;-67
2024/02/13 00:40:21;;;;;;;0.57;0.57;;;;;;;;;;5073094;28;20740;-67
2024/02/13 00:42:51;;;;;;;0.10;0.10;;;;;;;;;;5073312;28;20732;-66
2024/02/13 00:45:16;;;;;;;0.10;0.10;;;;;;;;;;5073093;28;20028;-67
2024/02/13 00:47:41;;;;;;;0.65;0.65;;;;;;;;;;5073149;28;20373;-67
2024/02/13 00:50:08;;;;;;;4.22;2.13;;;;;;;;;;5073291;28;20031;-67
2024/02/13 00:52:33;;;;;;;0.75;0.75;;;;;;;;;;5073255;28;20020;-67
2024/02/13 00:54:59;;;;;;;0.40;0.40;;;;;;;;;;5073119;28;20051;-67
2024/02/13 00:57:24;;;;;;;0.55;0.55;;;;;;;;;;5078507;28;20055;-67
2024/02/13 00:59:49;;;;;;;0.33;0.33;;;;;;;;;;5092801;28;20012;-68
2024/02/13 01:02:17;;;;;;;0.20;0.20;;;;;;;;;;5093087;28;20256;-68
2024/02/13 01:04:43;;;;;;;0.65;0.65;;;;;;;;;;5092788;28;20425;-68
2024/02/13 01:07:08;;;;;;;0.15;0.15;;;;;;;;;;5093100;28;20024;-68
2024/02/13 01:09:34;;;;;;;1.33;1.23;;;;;;;;;;5093030;28;20016;-68
2024/02/13 01:11:59;;;;;;;0.15;0.15;;;;;;;;;;5092871;28;20244;-68
2024/02/13 01:14:24;;;;;;;0.47;0.47;;;;;;;;;;5093174;28;20070;-68
2024/02/13 01:16:50;;;;;;;0.32;0.32;;;;;;;;;;5092980;28;20256;-68
2024/02/13 01:19:17;;;;;;;0.43;0.43;;;;;;;;;;5092667;28;20024;-68
2024/02/13 01:21:43;;;;;;;1.65;1.40;;;;;;;;;;5092737;28;20300;-68
2024/02/13 01:24:08;;;;;;;0.65;0.43;;;;;;;;;;5093139;28;20055;-68
2024/02/13 01:26:34;;;;;;;0.82;0.75;;;;;;;;;;5092958;28;20464;-68
2024/02/13 01:29:00;;;;;;;1.08;0.98;;;;;;;;;;5085767;28;20028;-68
2024/02/13 01:31:25;;;;;;;1.45;0.85;;;;;;;;;;5076296;28;20463;-68
2024/02/13 01:33:51;;;;;;;7.03;1.85;;;;;;;;;;5077269;28;20032;-68
2024/02/13 01:36:17;;;;;;;0.10;0.10;;;;;;;;;;5096137;28;20043;-68
2024/02/13 01:38:43;;;;;;;0.50;0.50;;;;;;;;;;5096598;28;20442;-68
2024/02/13 01:41:09;;;;;;;0.40;0.40;;;;;;;;;;5096528;28;20036;-68
2024/02/13 01:43:34;;;;;;;0.43;0.38;;;;;;;;;;5096702;28;20712;-68
2024/02/13 01:46:02;;;;;;;6.17;1.77;;;;;;;;;;5096369;28;20035;-68
2024/02/13 01:48:28;;;;;;;2.15;1.08;;;;;;;;;;5096281;28;20276;-68
2024/02/13 01:50:55;;;;;;;2.50;0.75;;;;;;;;;;5092812;28;20042;-68
2024/02/13 01:53:21;;;;;;;0.13;0.13;;;;;;;;;;5076253;28;20464;-68
2024/02/13 01:55:48;;;;;;;0.10;0.10;;;;;;;;;;5075819;28;20024;-68
2024/02/13 01:58:15;;;;;;;0.10;0.10;;;;;;;;;;5075922;28;20242;-68
2024/02/13 02:00:41;;;;;;;0.68;0.68;;;;;;;;;;5076099;28;20485;-68
2024/02/13 02:03:07;;;;;;;0.63;0.63;;;;;;;;;;5075745;28;20028;-68
2024/02/13 02:05:32;;;;;;;0.10;0.10;;;;;;;;;;5075765;28;20025;-68
2024/02/13 02:07:59;;;;;;;0.10;0.10;;;;;;;;;;5075781;28;20106;-66
2024/02/13 02:10:24;;;;;;;0.70;0.70;;;;;;;;;;5075635;28;20245;-67
2024/02/13 02:12:50;;;;;;;0.60;0.60;;;;;;;;;;5075575;28;20070;-66
2024/02/13 02:15:16;;;;;;;0.82;0.65;;;;;;;;;;5075441;28;20024;-66
2024/02/13 02:17:51;;;;;;;0.57;0.57;;;;;;;;;;5075754;28;20035;-67
2024/02/13 02:20:17;;;;;;;0.20;0.20;;;;;;;;;;5075194;28;20043;-66
2024/02/13 02:22:42;;;;;;;0.10;0.10;;;;;;;;;;5071151;28;20036;-67
2024/02/13 02:25:08;;;;;;;1.08;1.00;;;;;;;;;;5076466;28;20032;-66
2024/02/13 02:27:35;;;;;;;0.13;0.13;;;;;;;;;;5085988;28;20035;-67
2024/02/13 02:30:00;;;;;;;0.10;0.10;;;;;;;;;;5095805;28;20476;-66
2024/02/13 02:32:25;;;;;;;0.35;0.35;;;;;;;;;;5095369;28;20024;-67
2024/02/13 02:34:51;;;;;;;0.20;0.20;;;;;;;;;;5086061;28;20032;-67
2024/02/13 02:37:16;;;;;;;0.55;0.55;;;;;;;;;;5075441;28;20043;-66
2024/02/13 02:39:41;;;;;;;0.13;0.13;;;;;;;;;;5074790;28;20020;-67
2024/02/13 02:42:07;;;;;;;0.47;0.47;;;;;;;;;;5075132;28;20021;-67
2024/02/13 02:44:35;;;;;;;0.13;0.13;;;;;;;;;;5095002;28;20731;-67
2024/02/13 02:47:01;;;;;;;0.13;0.13;;;;;;;;;;5095158;28;20259;-66
2024/02/13 02:49:26;;;;;;;0.08;0.08;;;;;;;;;;5095115;28;20016;-67
2024/02/13 02:51:52;;;;;;;0.10;0.10;;;;;;;;;;5095114;28;20031;-67
2024/02/13 02:54:17;;;;;;;0.10;0.10;;;;;;;;;;5076888;28;20099;-66
2024/02/13 02:56:43;;;;;;;0.10;0.10;;;;;;;;;;5095052;28;20468;-66
2024/02/13 02:59:08;;;;;;;0.45;0.45;;;;;;;;;;5094593;28;20078;-67
2024/02/13 03:01:34;;;;;;;0.08;0.08;;;;;;;;;;5095133;28;20024;-67
2024/02/13 03:04:01;;;;;;;0.32;0.32;;;;;;;;;;5093307;28;20016;-66
2024/02/13 03:06:26;;;;;;;0.65;0.57;;;;;;;;;;5074814;28;20414;-67
2024/02/13 03:08:51;;;;;;;0.20;0.20;;;;;;;;;;5074560;28;20009;-67
2024/02/13 03:11:17;;;;;;;0.10;0.10;;;;;;;;;;5074429;28;20025;-67
2024/02/13 03:13:42;;;;;;;0.10;0.10;;;;;;;;;;5074464;28;20249;-66
2024/02/13 03:16:07;;;;;;;0.20;0.20;;;;;;;;;;5074311;28;20290;-67
2024/02/13 03:18:32;;;;;;;0.10;0.10;;;;;;;;;;5074718;28;20059;-68
2024/02/13 03:20:58;;;;;;;0.10;0.10;;;;;;;;;;5074364;28;20333;-68
2024/02/13 03:23:23;;;;;;;0.17;0.17;;;;;;;;;;5074516;28;20375;-68
2024/02/13 03:25:49;;;;;;;0.87;0.83;;;;;;;;;;5074219;28;20093;-68
2024/02/13 03:28:14;;;;;;;0.52;0.52;;;;;;;;;;5074163;28;20710;-68
2024/02/13 03:30:39;;;;;;;0.10;0.10;;;;;;;;;;5074080;28;20036;-68
2024/02/13 03:33:04;;;;;;;0.13;0.13;;;;;;;;;;5073989;28;20265;-68
2024/02/13 03:35:32;;;;;;;0.10;0.10;;;;;;;;;;5073919;28;20352;-68
2024/02/13 03:37:58;;;;;;;0.20;0.20;;;;;;;;;;5073872;28;20107;-68
2024/02/13 03:40:23;;;;;;;0.13;0.13;;;;;;;;;;5073996;28;20113;-68
2024/02/13 03:42:48;;;;;;;0.20;0.20;;;;;;;;;;5073854;28;20428;-68
2024/02/13 03:45:14;;;;;;;0.40;0.38;;;;;;;;;;5074259;28;20293;-68
2024/02/13 03:47:39;;;;;;;0.13;0.13;;;;;;;;;;5073709;28;20043;-68
2024/02/13 03:50:05;;;;;;;0.20;0.20;;;;;;;;;;5073989;28;20085;-68
2024/02/13 03:52:31;;;;;;;1.10;1.00;;;;;;;;;;5073155;28;20020;-68
2024/02/13 03:54:57;;;;;;;1.13;0.30;;;;;;;;;;5073829;28;20024;-68
2024/02/13 03:57:22;;;;;;;1.42;0.45;;;;;;;;;;5073867;28;20025;-68
2024/02/13 03:59:47;;;;;;;0.10;0.10;;;;;;;;;;5073580;28;20518;-68
2024/02/13 04:02:13;;;;;;;0.52;0.52;;;;;;;;;;5085373;28;20548;-68
2024/02/13 04:04:39;;;;;;;1.27;1.02;;;;;;;;;;5093439;28;20030;-68
2024/02/13 04:07:05;;;;;;;0.17;0.17;;;;;;;;;;5075495;28;20016;-68
2024/02/13 04:09:31;;;;;;;1.08;0.95;;;;;;;;;;5093666;28;20385;-68
2024/02/13 04:11:56;;;;;;;0.38;0.38;;;;;;;;;;5093479;28;20035;-68
2024/02/13 04:14:21;;;;;;;0.10;0.10;;;;;;;;;;5093565;28;20039;-69
2024/02/13 04:16:46;;;;;;;2.33;1.65;;;;;;;;;;5093855;28;20020;-68
2024/02/13 04:19:12;;;;;;;0.82;0.75;;;;;;;;;;5093151;28;20077;-68
2024/02/13 04:21:37;;;;;;;0.25;0.25;;;;;;;;;;5093176;28;20067;-68
2024/02/13 04:24:03;;;;;;;1.00;0.90;;;;;;;;;;5093452;28;20024;-68
2024/02/13 04:26:29;;;;;;;0.40;0.40;;;;;;;;;;5093690;28;20027;-69
2024/02/13 04:28:54;;;;;;;0.75;0.75;;;;;;;;;;5087470;28;20028;-68
2024/02/13 04:31:19;;;;;;;0.20;0.20;;;;;;;;;;5073213;28;20051;-68
2024/02/13 04:33:44;;;;;;;0.57;0.43;;;;;;;;;;5073224;28;20120;-68
2024/02/13 04:36:10;;;;;;;1.07;1.03;;;;;;;;;;5073085;28;20317;-68
2024/02/13 04:38:35;;;;;;;0.10;0.10;;;;;;;;;;5073194;28;20359;-68
2024/02/13 04:41:01;;;;;;;0.63;0.63;;;;;;;;;;5073168;28;20334;-68
2024/02/13 04:43:26;;;;;;;0.20;0.20;;;;;;;;;;5076965;28;20020;-68
2024/02/13 04:45:52;;;;;;;0.70;0.57;;;;;;;;;;5093160;28;20253;-68
2024/02/13 04:48:18;;;;;;;0.30;0.30;;;;;;;;;;5093266;28;20024;-68
2024/02/13 04:50:43;;;;;;;0.63;0.63;;;;;;;;;;5093183;28;20031;-68
2024/02/13 04:53:09;;;;;;;0.20;0.20;;;;;;;;;;5092957;28;20028;-68
2024/02/13 04:55:34;;;;;;;0.60;0.60;;;;;;;;;;5093090;28;20535;-68
2024/02/13 04:58:01;;;;;;;0.65;0.65;;;;;;;;;;5093393;28;20028;-68
2024/02/13 05:00:29;;;;;;;0.90;0.65;;;;;;;;;;5093139;28;20028;-68
2024/02/13 05:03:17;;;;;;;0.85;0.73;;;;;;;;;;5093818;28;20411;-68
2024/02/13 05:08:29;;;;;;;1.70;1.60;;;;;;;;;;5097021;28;20154;-69
2024/02/13 05:10:56;;;;;;;0.40;0.40;;;;;;;;;;5080294;28;20119;-67
2024/02/13 05:13:21;;;;;;;0.38;0.35;;;;;;;;;;5076473;28;20031;-67
2024/02/13 05:15:46;;;;;;;0.75;0.75;;;;;;;;;;5076658;28;20024;-67
2024/02/13 05:18:13;;;;;;;0.38;0.38;;;;;;;;;;5076719;28;20020;-67
2024/02/13 05:20:38;;;;;;;0.20;0.20;;;;;;;;;;5076881;28;20020;-67
2024/02/13 05:23:03;;;;;;;0.52;0.50;;;;;;;;;;5074260;28;20483;-67
2024/02/13 05:25:29;;;;;;;0.25;0.25;;;;;;;;;;5076469;28;20025;-67
2024/02/13 05:27:54;;;;;;;0.10;0.10;;;;;;;;;;5076485;28;20079;-67
2024/02/13 05:30:20;;;;;;;0.20;0.20;;;;;;;;;;5076454;28;20039;-67
2024/02/13 05:32:46;;;;;;;2.30;0.85;;;;;;;;;;5076624;28;20184;-67
2024/02/13 05:35:11;;;;;;;0.95;0.57;;;;;;;;;;5076552;28;20113;-67
2024/02/13 05:37:37;;;;;;;0.53;0.40;;;;;;;;;;5076444;28;20524;-68
2024/02/13 05:40:05;;;;;;;0.20;0.20;;;;;;;;;;5076012;28;20299;-68
2024/02/13 05:42:30;;;;;;;0.30;0.30;;;;;;;;;;5076085;28;20020;-68
2024/02/13 05:44:55;;;;;;;0.63;0.40;;;;;;;;;;5076189;28;20027;-68
2024/02/13 05:47:23;;;;;;;0.65;0.63;;;;;;;;;;5076014;28;20260;-68
2024/02/13 05:49:48;;;;;;;0.20;0.20;;;;;;;;;;5076311;28;20395;-69
2024/02/13 05:52:13;;;;;;;0.23;0.23;;;;;;;;;;5076297;28;20031;-68
2024/02/13 05:54:39;;;;;;;0.33;0.20;;;;;;;;;;5075912;28;20822;-68
2024/02/13 05:57:05;;;;;;;7.78;1.38;;;;;;;;;;5076202;28;20733;-68
2024/02/13 05:59:31;;;;;;;0.20;0.20;;;;;;;;;;5057897;28;20074;-68
2024/02/13 06:01:57;;;;;;;0.10;0.10;;;;;;;;;;5075768;28;20028;-68
2024/02/13 06:04:23;;;;;;;0.35;0.35;;;;;;;;;;5075835;28;20019;-68
2024/02/13 06:06:48;;;;;;;0.20;0.20;;;;;;;;;;5075969;28;20031;-68
2024/02/13 06:09:20;;;;;;;1.03;0.67;;;;;;;;;;5075728;28;20468;-68
2024/02/13 06:11:46;;;;;;;1.88;1.27;;;;;;;;;;5075860;28;20250;-69
2024/02/13 06:14:11;;;;;;;0.50;0.43;;;;;;;;;;5075319;28;20461;-69
2024/02/13 06:16:36;;;;;;;0.27;0.27;;;;;;;;;;5074903;28;20028;-69
2024/02/13 06:19:01;;;;;;;0.10;0.10;;;;;;;;;;5075814;28;20249;-69
2024/02/13 06:21:28;;;;;;;0.60;0.60;;;;;;;;;;5072032;28;20037;-68
2024/02/13 06:23:55;;;;;;;0.20;0.20;;;;;;;;;;5074771;28;20515;-68
2024/02/13 06:26:20;;;;;;;1.05;0.45;;;;;;;;;;5075627;28;20105;-68
2024/02/13 06:28:46;;;;;;;0.40;0.40;;;;;;;;;;5075355;28;20052;-68
2024/02/13 06:31:11;;;;;;;0.03;0.03;;;;;;;;;;5075617;28;20100;-68
2024/02/13 06:33:38;;;;;;;0.43;0.30;;;;;;;;;;5075257;28;20526;-68
2024/02/13 06:36:04;;;;;;;0.45;0.45;;;;;;;;;;5075446;28;20063;-68
2024/02/13 06:38:29;;;;;;;0.15;0.15;;;;;;;;;;5075469;28;20425;-68
2024/02/13 06:40:55;;;;;;;0.40;0.40;;;;;;;;;;5075116;28;20021;-68
2024/02/13 06:43:21;;;;;;;0.35;0.35;;;;;;;;;;5075303;28;20242;-68
2024/02/13 06:45:47;;;;;;;2.77;0.33;;;;;;;;;;5075040;28;20050;-68
2024/02/13 06:48:13;;;;;;;0.63;0.63;;;;;;;;;;5075074;28;20257;-68
2024/02/13 06:50:38;;;;;;;0.65;0.47;;;;;;;;;;5074879;28;20087;-68
2024/02/13 06:53:03;;;;;;;0.30;0.30;;;;;;;;;;5074944;28;20038;-68
2024/02/13 06:55:28;;;;;;;0.07;0.07;;;;;;;;;;5074774;28;20024;-68
2024/02/13 06:57:54;;;;;;;0.13;0.13;;;;;;;;;;5074781;28;20252;-68
2024/02/13 07:00:19;;;;;;;0.33;0.33;;;;;;;;;;5074685;28;20241;-68
2024/02/13 07:02:45;;;;;;;0.35;0.20;;;;;;;;;;5074950;28;20245;-68
2024/02/13 07:05:11;;;;;;;1.27;1.17;;;;;;;;;;5074618;28;20025;-68
2024/02/13 07:07:37;;;;;;;0.47;0.47;;;;;;;;;;5074825;28;20091;-68
2024/02/13 07:10:03;;;;;;;5.93;0.85;;;;;;;;;;5074821;28;20020;-68
2024/02/13 07:12:29;;;;;;;0.20;0.20;;;;;;;;;;5074360;28;20020;-68
2024/02/13 07:14:54;;;;;;;0.30;0.20;;;;;;;;;;5074684;28;20052;-68
2024/02/13 07:17:19;;;;;;;0.63;0.25;;;;;;;;;;5074686;28;20091;-68
2024/02/13 07:19:45;;;;;;;0.50;0.50;;;;;;;;;;5074392;28;20028;-68
2024/02/13 07:22:10;;;;;;;0.70;0.70;;;;;;;;;;5074290;28;20044;-68
2024/02/13 07:24:36;;;;;;;0.65;0.65;;;;;;;;;;5074505;28;20031;-68
2024/02/13 07:27:04;;;;;;;0.28;0.28;;;;;;;;;;5074386;28;20452;-69
2024/02/13 07:29:29;;;;;;;0.10;0.10;;;;;;;;;;5074395;28;20487;-69
2024/02/13 07:31:54;;;;;;;0.50;0.50;;;;;;;;;;5074136;28;20025;-69
2024/02/13 07:34:20;;;;;;;0.10;0.10;;;;;;;;;;5073993;28;20242;-68
2024/02/13 07:36:45;;;;;;;1.23;1.15;;;;;;;;;;5073973;28;20710;-68
2024/02/13 07:39:11;;;;;;;0.93;0.93;;;;;;;;;;5074008;28;20036;-68
2024/02/13 07:41:36;;;;;;;1.38;0.28;;;;;;;;;;5074210;28;20016;-68
2024/02/13 07:44:01;;;;;;;0.20;0.20;;;;;;;;;;5073942;28;20091;-68
2024/02/13 07:46:26;;;;;;;2.20;2.00;;;;;;;;;;5073852;28;20023;-68
2024/02/13 07:48:52;;;;;;;0.50;0.50;;;;;;;;;;5073832;28;20334;-68
2024/02/13 07:51:18;;;;;;;1.48;1.30;;;;;;;;;;5073972;28;20325;-68
2024/02/13 07:53:43;;;;;;;1.15;1.05;;;;;;;;;;5073777;28;20020;-68
2024/02/13 07:56:10;;;;;;;0.40;0.40;;;;;;;;;;5073503;28;20028;-68
2024/02/13 07:58:36;;;;;;;0.17;0.17;;;;;;;;;;5074037;28;20024;-67
2024/02/13 08:01:01;;;;;;;0.77;0.77;;;;;;;;;;5073677;28;20091;-67
2024/02/13 08:03:26;;;;;;;0.55;0.55;;;;;;;;;;5073613;28;20249;-67
2024/02/13 08:05:51;;;;;;;0.40;0.40;;;;;;;;;;5073544;28;20024;-67
2024/02/13 08:08:17;;;;;;;0.40;0.40;;;;;;;;;;5073654;28;20016;-67
2024/02/13 08:10:43;;;;;;;0.30;0.30;;;;;;;;;;5073517;28;20111;-67
2024/02/13 08:13:09;;;;;;;0.20;0.20;;;;;;;;;;5073438;28;20055;-67
2024/02/13 08:15:34;;;;;;;0.75;0.75;;;;;;;;;;5073636;28;20732;-67
2024/02/13 08:18:01;;;;;;;1.98;0.70;;;;;;;;;;5073616;28;20047;-67
2024/02/13 08:20:27;;;;;;;2.55;1.25;;;;;;;;;;5073612;28;20052;-67
2024/02/13 08:22:52;;;;;;;1.83;0.82;;;;;;;;;;5073255;28;20114;-67
2024/02/13 08:25:18;;;;;;;0.75;0.65;;;;;;;;;;5073322;28;20543;-67
2024/02/13 08:27:43;;;;;;;0.68;0.68;;;;;;;;;;5073337;28;20038;-67
2024/02/13 08:30:11;;;;;;;0.20;0.20;;;;;;;;;;5073329;28;20396;-67
2024/02/13 08:32:41;;;;;;;0.40;0.38;;;;;;;;;;5073410;28;20028;-67
2024/02/13 08:35:08;;;;;;;0.77;0.77;;;;;;;;;;5073397;28;20427;-67
2024/02/13 08:37:34;;;;;;;0.17;0.17;;;;;;;;;;5073061;28;20483;-67
2024/02/13 08:39:59;;;;;;;0.40;0.40;;;;;;;;;;5073036;28;20021;-67
2024/02/13 08:42:26;;;;;;;1.03;0.77;;;;;;;;;;5073164;28;20023;-67
2024/02/13 08:44:52;;;;;;;1.08;0.98;;;;;;;;;;5073058;28;20602;-67
2024/02/13 08:47:17;;;;;;;1.20;1.10;;;;;;;;;;5073012;28;20017;-67
2024/02/13 08:49:43;;;;;;;0.63;0.63;;;;;;;;;;5073102;28;20020;-67
2024/02/13 08:52:10;;;;;;;0.80;0.80;;;;;;;;;;5072959;28;20112;-67
2024/02/13 08:54:35;;;;;;;0.63;0.63;;;;;;;;;;5073231;28;20585;-67
2024/02/13 08:57:01;;;;;;;0.20;0.20;;;;;;;;;;5073226;28;20039;-67
2024/02/13 08:59:26;;;;;;;0.55;0.55;;;;;;;;;;5073287;28;20315;-67
2024/02/13 09:01:51;;;;;;;0.57;0.57;;;;;;;;;;5073009;28;20464;-67
2024/02/13 09:04:16;;;;;;;0.38;0.38;;;;;;;;;;5072961;28;20020;-67
2024/02/13 09:06:41;;;;;;;0.60;0.60;;;;;;;;;;5072995;28;20020;-67
2024/02/13 09:09:09;;;;;;;0.50;0.50;;;;;;;;;;5072984;28;20670;-67
2024/02/13 09:11:34;;;;;;;0.40;0.40;;;;;;;;;;5072944;28;20016;-67
2024/02/13 09:13:59;;;;;;;0.88;0.80;;;;;;;;;;5072832;28;20407;-67
2024/02/13 09:16:24;;;;;;;0.20;0.20;;;;;;;;;;5072996;28;20024;-67
2024/02/13 09:18:49;;;;;;;0.53;0.53;;;;;;;;;;5072755;28;20307;-67
2024/02/13 09:21:16;;;;;;;1.67;0.77;;;;;;;;;;5073043;28;20299;-67
2024/02/13 09:23:43;;;;;;;1.02;0.65;;;;;;;;;;5072562;28;20120;-67
2024/02/13 09:26:08;;;;;;;0.10;0.10;;;;;;;;;;5072978;28;20474;-67
2024/02/13 09:28:34;;;;;;;0.10;0.10;;;;;;;;;;5072728;28;20078;-67
2024/02/13 09:30:59;;;;;;;1.42;0.75;;;;;;;;;;5072917;28;20091;-67
2024/02/13 09:33:25;;;;;;;0.30;0.30;;;;;;;;;;5072695;28;20012;-67
2024/02/13 09:35:51;;;;;;;1.23;1.13;;;;;;;;;;5072759;28;20629;-67
2024/02/13 09:38:17;;;;;;;0.45;0.45;;;;;;;;;;5072608;28;20021;-67
2024/02/13 09:40:42;;;;;;;0.73;0.70;;;;;;;;;;5072649;28;20059;-67
2024/02/13 09:43:08;;;;;;;0.28;0.28;;;;;;;;;;5072822;28;20017;-67
2024/02/13 09:45:34;;;;;;;0.55;0.47;;;;;;;;;;5072761;28;20021;-67
2024/02/13 09:48:03;;;;;;;2.92;1.95;;;;;;;;;;5072789;28;20158;-67
2024/02/13 09:50:31;;;;;;;0.35;0.35;;;;;;;;;;5073712;28;20380;-67
2024/02/13 09:52:58;;;;;;;1.45;1.35;;;;;;;;;;5076090;28;20358;-67
2024/02/13 09:55:25;;;;;;;0.20;0.20;;;;;;;;;;5075982;28;20025;-67
2024/02/13 09:57:51;;;;;;;0.13;0.13;;;;;;;;;;5076006;28;20442;-67
2024/02/13 10:00:18;;;;;;;0.10;0.10;;;;;;;;;;5076102;28;20043;-67
2024/02/13 10:02:43;;;;;;;1.52;1.35;;;;;;;;;;5076234;28;20514;-67
2024/02/13 10:05:10;;;;;;;1.17;0.95;;;;;;;;;;5075888;28;20056;-67
2024/02/13 10:07:39;;;;;;;0.88;0.28;;;;;;;;;;5075773;28;20017;-67
2024/02/13 10:10:11;;;;;;;1.77;1.65;;;;;;;;;;5076036;28;20052;-67
2024/02/13 10:12:53;;;;;;;0.10;0.10;;;;;;;;;;5075858;28;20514;-67
2024/02/13 10:15:19;;;;;;;0.30;0.30;;;;;;;;;;5057738;28;20031;-67
2024/02/13 10:17:45;;;;;;;0.30;0.30;;;;;;;;;;5075959;28;20024;-68
2024/02/13 10:20:17;;;;;;;0.38;0.38;;;;;;;;;;5057536;28;20046;-68
2024/02/13 10:22:49;;;;;;;0.20;0.20;;;;;;;;;;5073176;28;20036;-69
2024/02/13 10:25:21;;;;;;;0.30;0.30;;;;;;;;;;5075764;28;20029;-68
2024/02/13 10:27:46;;;;;;;0.10;0.10;;;;;;;;;;5075412;28;20028;-68
2024/02/13 10:30:20;;;;;;;0.98;0.70;;;;;;;;;;5075373;28;20020;-68
2024/02/13 10:32:45;;;;;;;0.55;0.55;;;;;;;;;;5075276;28;20031;-68
2024/02/13 10:35:11;;;;;;;0.70;0.60;;;;;;;;;;5075439;28;20028;-68
2024/02/13 10:37:37;;;;;;;0.40;0.40;;;;;;;;;;5075488;28;20307;-68
2024/02/13 10:40:02;;;;;;;0.60;0.60;;;;;;;;;;5075491;28;20016;-68
2024/02/13 10:42:30;;;;;;;0.25;0.25;;;;;;;;;;5075156;28;20366;-68
2024/02/13 10:44:59;;;;;;;0.20;0.20;;;;;;;;;;5075312;28;20029;-68
2024/02/13 10:47:28;;;;;;;0.30;0.30;;;;;;;;;;5075296;28;20044;-68
2024/02/13 10:49:57;;;;;;;0.57;0.57;;;;;;;;;;5075259;28;20025;-68
2024/02/13 10:52:22;;;;;;;1.33;0.65;;;;;;;;;;5075241;28;20032;-70
2024/02/13 10:54:48;;;;;;;0.47;0.47;;;;;;;;;;5074811;28;20464;-69
2024/02/13 10:57:15;;;;;;;0.20;0.20;;;;;;;;;;5074905;28;20476;-69
2024/02/13 10:59:41;;;;;;;0.77;0.77;;;;;;;;;;5074756;28;20023;-69
2024/02/13 11:02:07;;;;;;;0.10;0.10;;;;;;;;;;5074357;28;20563;-69
2024/02/13 11:04:33;;;;;;;1.30;0.68;;;;;;;;;;5074688;28;20074;-69
2024/02/13 11:06:58;;;;;;;0.30;0.30;;;;;;;;;;5074654;28;20016;-69
2024/02/13 11:09:25;;;;;;;0.20;0.20;;;;;;;;;;5074614;28;20020;-68
2024/02/13 11:11:51;;;;;;;0.20;0.20;;;;;;;;;;5074482;28;20013;-68
2024/02/13 11:14:17;;;;;;;4.78;0.40;;;;;;;;;;5074450;28;20077;-69
2024/02/13 11:16:49;;;;;;;0.55;0.55;;;;;;;;;;5074313;28;20123;-69
2024/02/13 11:19:15;;;;;;;11.82;0.85;;;;;;;;;;5074405;28;20028;-69
2024/02/13 11:21:41;;;;;;;0.40;0.30;;;;;;;;;;5074565;28;20043;-69
2024/02/13 11:24:08;;;;;;;0.32;0.32;;;;;;;;;;5074106;28;20045;-69
2024/02/13 11:26:36;;;;;;;0.10;0.10;;;;;;;;;;5074488;28;20028;-68
2024/02/13 11:29:11;;;;;;;0.10;0.10;;;;;;;;;;5074412;28;20020;-67
2024/02/13 11:31:37;;;;;;;0.30;0.30;;;;;;;;;;5074219;28;20035;-67
2024/02/13 11:34:09;;;;;;;0.20;0.20;;;;;;;;;;5074018;28;20020;-67
2024/02/13 11:36:35;;;;;;;0.98;0.40;;;;;;;;;;5074127;28;20468;-67
2024/02/13 11:39:05;;;;;;;0.45;0.43;;;;;;;;;;5073980;28;20024;-67
2024/02/13 11:41:31;;;;;;;0.63;0.63;;;;;;;;;;5074211;28;20499;-67
2024/02/13 11:44:03;;;;;;;0.50;0.15;;;;;;;;;;5073883;28;20020;-67
2024/02/13 11:46:29;;;;;;;0.28;0.28;;;;;;;;;;5073886;28;20523;-67
2024/02/13 11:48:58;;;;;;;0.10;0.10;;;;;;;;;;5074076;28;20020;-67
2024/02/13 11:51:23;;;;;;;0.00;0.00;;;;;;;;;;5074060;28;20597;-67
2024/02/13 11:53:49;;;;;;;0.43;0.43;;;;;;;;;;5073767;28;20016;-67
2024/02/13 11:56:15;;;;;;;0.25;0.25;;;;;;;;;;5073519;28;20447;-67
2024/02/13 11:58:40;;;;;;;0.88;0.60;;;;;;;;;;5073941;28;20032;-67
2024/02/13 12:01:06;;;;;;;0.60;0.60;;;;;;;;;;5073705;28;20063;-67
2024/02/13 12:03:32;;;;;;;3.33;1.25;;;;;;;;;;5073800;28;20778;-67
2024/02/13 12:05:59;;;;;;;0.08;0.08;;;;;;;;;;5073849;28;20354;-67
2024/02/13 12:08:24;;;;;;;0.70;0.30;;;;;;;;;;5073486;28;20103;-67
2024/02/13 12:10:50;;;;;;;0.10;0.10;;;;;;;;;;5073754;28;20044;-67
2024/02/13 12:13:17;;;;;;;0.20;0.20;;;;;;;;;;5072906;28;20032;-67
2024/02/13 12:15:44;;;;;;;0.00;0.00;;;;;;;;;;5073650;28;20460;-67
2024/02/13 12:18:11;;;;;;;0.20;0.20;;;;;;;;;;5073443;28;20019;-67
2024/02/13 12:20:37;;;;;;;0.20;0.20;;;;;;;;;;5073643;28;20020;-67
2024/02/13 12:23:06;;;;;;;0.10;0.10;;;;;;;;;;5073300;28;20124;-67
2024/02/13 12:25:31;;;;;;;0.28;0.20;;;;;;;;;;5073597;28;20028;-67
2024/02/13 12:28:05;;;;;;;0.30;0.20;;;;;;;;;;5073589;28;20490;-67
2024/02/13 12:30:31;;;;;;;0.20;0.20;;;;;;;;;;5073374;28;20044;-67
2024/02/13 12:32:59;;;;;;;0.10;0.10;;;;;;;;;;5073525;28;20031;-67
2024/02/13 12:35:32;;;;;;;0.10;0.10;;;;;;;;;;5073043;28;20035;-67
2024/02/13 12:38:06;;;;;;;0.10;0.10;;;;;;;;;;5073576;28;20523;-68
2024/02/13 12:40:32;;;;;;;0.57;0.57;;;;;;;;;;5073264;28;20063;-69
2024/02/13 12:42:58;;;;;;;0.38;0.20;;;;;;;;;;5073116;28;20384;-69
2024/02/13 12:45:25;;;;;;;0.25;0.25;;;;;;;;;;5073428;28;20032;-68
2024/02/13 12:47:50;;;;;;;0.47;0.28;;;;;;;;;;5073336;28;20436;-68
2024/02/13 12:50:16;;;;;;;0.30;0.30;;;;;;;;;;5073108;28;20048;-68
2024/02/13 12:52:41;;;;;;;0.30;0.30;;;;;;;;;;5073330;28;20495;-68
2024/02/13 12:55:09;;;;;;;0.25;0.25;;;;;;;;;;5072981;28;20021;-69
2024/02/13 12:57:34;;;;;;;0.10;0.10;;;;;;;;;;5073101;28;20380;-69
2024/02/13 12:59:59;;;;;;;0.25;0.25;;;;;;;;;;5072981;28;20012;-69
2024/02/13 13:02:25;;;;;;;0.10;0.10;;;;;;;;;;5073027;28;20399;-69
2024/02/13 13:04:54;;;;;;;0.20;0.20;;;;;;;;;;5073219;28;20495;-69
2024/02/13 13:07:19;;;;;;;0.03;0.03;;;;;;;;;;5073173;28;20025;-68
2024/02/13 13:09:45;;;;;;;0.20;0.20;;;;;;;;;;5073174;28;20070;-68
2024/02/13 13:12:10;;;;;;;0.38;0.32;;;;;;;;;;5073017;28;20488;-69
2024/02/13 13:14:36;;;;;;;0.00;0.00;;;;;;;;;;5072750;28;20044;-69
2024/02/13 13:17:01;;;;;;;0.20;0.20;;;;;;;;;;5072787;28;20032;-68
2024/02/13 13:19:28;;;;;;;0.43;0.33;;;;;;;;;;5072818;28;20020;-68
2024/02/13 13:21:53;;;;;;;0.30;0.30;;;;;;;;;;5072820;28;20765;-69
2024/02/13 13:24:19;;;;;;;0.20;0.20;;;;;;;;;;5073785;28;20052;-69
2024/02/13 13:26:45;;;;;;;0.10;0.10;;;;;;;;;;5076789;28;20115;-69
2024/02/13 13:29:11;;;;;;;0.10;0.10;;;;;;;;;;5076771;28;20052;-69
2024/02/13 13:31:38;;;;;;;0.10;0.10;;;;;;;;;;5076719;28;20031;-69
2024/02/13 13:34:09;;;;;;;0.20;0.20;;;;;;;;;;5076706;28;20033;-69
2024/02/13 13:36:35;;;;;;;0.22;0.20;;;;;;;;;;5076289;28;20028;-69
2024/02/13 13:39:01;;;;;;;0.20;0.20;;;;;;;;;;5076267;28;20050;-69
2024/02/13 13:41:26;;;;;;;0.52;0.52;;;;;;;;;;5058470;28;20017;-69
2024/02/13 13:43:52;;;;;;;6.90;0.65;;;;;;;;;;5076475;28;20020;-69
2024/02/13 13:46:17;;;;;;;0.10;0.10;;;;;;;;;;5076445;28;20032;-69
2024/02/13 13:48:43;;;;;;;0.82;0.47;;;;;;;;;;5076181;28;20048;-69
2024/02/13 13:51:09;;;;;;;0.10;0.10;;;;;;;;;;5076372;28;20104;-69
2024/02/13 13:53:35;;;;;;;0.75;0.65;;;;;;;;;;5076023;28;20103;-68
2024/02/13 13:56:00;;;;;;;0.43;0.28;;;;;;;;;;5076217;28;20536;-68
2024/02/13 13:58:26;;;;;;;0.22;0.22;;;;;;;;;;5075990;28;20068;-68
2024/02/13 14:00:51;;;;;;;0.20;0.20;;;;;;;;;;5075922;28;20100;-68
2024/02/13 14:03:17;;;;;;;0.10;0.10;;;;;;;;;;5076153;28;20281;-68
2024/02/13 14:05:44;;;;;;;0.03;0.03;;;;;;;;;;5075934;28;20115;-68
2024/02/13 14:08:09;;;;;;;0.20;0.20;;;;;;;;;;5075743;28;20021;-68
2024/02/13 14:10:34;;;;;;;0.25;0.20;;;;;;;;;;5075811;28;20034;-68
2024/02/13 14:13:00;;;;;;;0.20;0.20;;;;;;;;;;5075661;28;20354;-69
2024/02/13 14:15:29;;;;;;;0.40;0.22;;;;;;;;;;5075870;28;20307;-69
2024/02/13 14:18:00;;;;;;;0.10;0.10;;;;;;;;;;5075900;28;20384;-68
2024/02/13 14:20:25;;;;;;;0.73;0.40;;;;;;;;;;5075581;28;20012;-68
2024/02/13 14:22:54;;;;;;;0.50;0.50;;;;;;;;;;5075501;28;20044;-69
2024/02/13 14:25:20;;;;;;;0.25;0.25;;;;;;;;;;5075765;28;20377;-69
2024/02/13 14:27:46;;;;;;;0.13;0.13;;;;;;;;;;5075669;28;20452;-69
2024/02/13 14:30:12;;;;;;;0.20;0.17;;;;;;;;;;5075672;28;20020;-68
2024/02/13 14:32:37;;;;;;;0.08;0.08;;;;;;;;;;5075332;28;20051;-68
2024/02/13 14:35:03;;;;;;;0.10;0.10;;;;;;;;;;5075557;28;20115;-68
2024/02/13 14:37:28;;;;;;;5.18;0.60;;;;;;;;;;5074706;28;20031;-68
2024/02/13 14:39:53;;;;;;;0.73;0.73;;;;;;;;;;5075462;28;20025;-68